createdAt,value
2023-01-27T00:00:30.412Z,2.06
2023-01-27T00:01:53.244Z,2.06
2023-01-27T00:02:56.182Z,2.06
2023-01-27T00:04:00.191Z,2.07
2023-01-27T00:05:03.800Z,2.06
2023-01-27T00:06:12.133Z,2.05
2023-01-27T00:07:15.375Z,2.05
2023-01-27T00:08:20.070Z,2.06
2023-01-27T00:09:23.552Z,2.08
2023-01-27T00:10:27.316Z,2.08
2023-01-27T00:11:48.763Z,2.07
2023-01-27T00:13:10.609Z,2.06
2023-01-27T00:14:13.602Z,2.04
2023-01-27T00:15:17.102Z,2.04
2023-01-27T00:16:20.258Z,2.03
2023-01-27T00:17:23.254Z,2.02
2023-01-27T00:18:26.467Z,2.02
2023-01-27T00:19:29.297Z,2.02
2023-01-27T00:20:51.325Z,2.03
2023-01-27T00:22:15.195Z,2.05
2023-01-27T00:23:43.800Z,2.05
2023-01-27T00:24:46.796Z,2.05
2023-01-27T00:25:51.020Z,2.06
2023-01-27T00:26:53.948Z,2.08
2023-01-27T00:27:56.894Z,2.07
2023-01-27T00:29:01.868Z,2.08
2023-01-27T00:30:08.303Z,2.10
2023-01-27T00:31:32.671Z,2.12
2023-01-27T00:32:54.296Z,2.15
2023-01-27T00:34:09.934Z,2.17
2023-01-27T00:35:16.771Z,2.16
2023-01-27T00:36:20.156Z,2.15
2023-01-27T00:37:23.371Z,2.15
2023-01-27T00:38:31.569Z,2.14
2023-01-27T00:39:34.774Z,2.14
2023-01-27T00:40:39.544Z,2.15
2023-01-27T00:41:42.512Z,2.16
2023-01-27T00:42:45.660Z,2.17
2023-01-27T00:43:55.198Z,2.18
2023-01-27T00:45:18.823Z,2.20
2023-01-27T00:46:23.943Z,2.22
2023-01-27T00:47:27.102Z,2.22
2023-01-27T00:48:29.953Z,2.24
2023-01-27T00:49:33.495Z,2.26
2023-01-27T00:50:38.999Z,2.27
2023-01-27T00:51:44.873Z,2.25
2023-01-27T00:52:48.023Z,2.24
2023-01-27T00:53:52.207Z,2.23
2023-01-27T00:54:55.029Z,2.23
2023-01-27T00:55:58.354Z,2.23
2023-01-27T00:57:01.348Z,2.22
2023-01-27T00:58:04.440Z,2.22
2023-01-27T00:59:07.425Z,2.21
2023-01-27T01:00:12.560Z,2.22
2023-01-27T01:01:16.990Z,2.23
2023-01-27T01:02:19.903Z,2.23
2023-01-27T01:03:24.686Z,2.23
2023-01-27T01:04:27.806Z,2.24
2023-01-27T01:05:30.735Z,2.25
2023-01-27T01:06:34.589Z,2.25
2023-01-27T01:07:40.002Z,2.27
2023-01-27T01:08:44.819Z,2.27
2023-01-27T01:09:47.974Z,2.25
2023-01-27T01:10:51.561Z,2.24
2023-01-27T01:11:54.645Z,2.24
2023-01-27T01:12:57.885Z,2.26
2023-01-27T01:14:00.794Z,2.30
2023-01-27T01:15:03.950Z,2.30
2023-01-27T01:16:10.529Z,2.33
2023-01-27T01:17:14.199Z,2.37
2023-01-27T01:18:17.256Z,2.39
2023-01-27T01:19:20.082Z,2.42
2023-01-27T01:20:24.219Z,2.45
2023-01-27T01:21:27.092Z,2.48
2023-01-27T01:22:31.159Z,2.51
2023-01-27T01:23:37.962Z,2.56
2023-01-27T01:24:40.820Z,2.59
2023-01-27T01:25:43.650Z,2.61
2023-01-27T01:26:46.706Z,2.63
2023-01-27T01:27:50.268Z,2.65
2023-01-27T01:28:53.229Z,2.66
2023-01-27T01:29:56.216Z,2.67
2023-01-27T01:31:07.254Z,2.68
2023-01-27T01:32:11.116Z,2.71
2023-01-27T01:33:14.366Z,2.71
2023-01-27T01:34:17.603Z,2.72
2023-01-27T01:35:21.634Z,2.69
2023-01-27T01:36:25.532Z,2.70
2023-01-27T01:37:28.716Z,2.72
2023-01-27T01:38:31.893Z,2.74
2023-01-27T01:39:34.961Z,2.75
2023-01-27T01:40:41.779Z,2.75
2023-01-27T01:41:45.577Z,2.75
2023-01-27T01:42:57.254Z,2.75
2023-01-27T01:44:25.146Z,2.76
2023-01-27T01:45:31.384Z,2.77
2023-01-27T01:46:34.253Z,2.78
2023-01-27T01:47:38.421Z,2.80
2023-01-27T01:48:47.789Z,2.82
2023-01-27T01:49:51.149Z,2.85
2023-01-27T01:51:01.932Z,2.86
2023-01-27T01:52:13.832Z,2.86
2023-01-27T01:53:21.765Z,2.85
2023-01-27T01:54:33.639Z,2.87
2023-01-27T01:55:40.173Z,2.87
2023-01-27T01:57:05.374Z,2.86
2023-01-27T01:58:13.203Z,2.87
2023-01-27T01:59:30.875Z,2.86
2023-01-27T02:00:35.045Z,2.85
2023-01-27T02:01:41.169Z,2.85
2023-01-27T02:02:46.105Z,2.85
2023-01-27T02:03:54.560Z,2.84
2023-01-27T02:05:11.799Z,2.84
2023-01-27T02:06:17.614Z,2.84
2023-01-27T02:07:46.012Z,2.85
2023-01-27T02:08:52.118Z,2.85
2023-01-27T02:10:02.384Z,2.84
2023-01-27T02:11:08.760Z,2.83
2023-01-27T02:12:13.585Z,2.84
2023-01-27T02:13:18.070Z,2.84
2023-01-27T02:14:21.073Z,2.85
2023-01-27T02:15:26.988Z,2.86
2023-01-27T02:16:30.468Z,2.86
2023-01-27T02:17:35.975Z,2.88
2023-01-27T02:18:41.896Z,2.88
2023-01-27T02:20:26.846Z,2.89
2023-01-27T02:21:31.107Z,2.84
2023-01-27T02:22:54.479Z,2.81
2023-01-27T02:24:10.953Z,2.79
2023-01-27T02:25:28.780Z,2.77
2023-01-27T02:26:54.655Z,2.75
2023-01-27T02:27:57.551Z,2.73
2023-01-27T02:29:08.098Z,2.72
2023-01-27T02:30:13.335Z,2.74
